createdAt,value
2023-04-18T00:00:12.760Z,10.93
2023-04-18T00:02:41.594Z,11.02
2023-04-18T00:05:09.311Z,10.40
2023-04-18T00:07:36.639Z,10.05
2023-04-18T00:10:05.803Z,9.90
2023-04-18T00:12:34.544Z,10.45
2023-04-18T00:15:02.640Z,10.05
2023-04-18T00:17:34.189Z,10.40
2023-04-18T00:20:07.234Z,10.48
2023-04-18T00:22:34.794Z,10.15
2023-04-18T00:25:02.035Z,11.30
2023-04-18T00:27:31.094Z,10.27
2023-04-18T00:29:58.193Z,10.27
2023-04-18T00:32:25.346Z,10.55
2023-04-18T00:34:52.414Z,10.57
2023-04-18T00:37:19.764Z,10.27
2023-04-18T00:39:48.938Z,10.30
2023-04-18T00:42:16.527Z,10.07
2023-04-18T00:44:43.521Z,10.82
2023-04-18T00:47:10.591Z,10.23
2023-04-18T00:49:37.934Z,10.82
2023-04-18T00:52:05.084Z,9.88
2023-04-18T00:54:32.574Z,11.27
2023-04-18T00:56:59.984Z,10.20
2023-04-18T00:59:27.093Z,11.77
2023-04-18T01:01:54.264Z,10.55
2023-04-18T01:04:21.645Z,11.00
2023-04-18T01:06:48.915Z,10.10
2023-04-18T01:09:16.076Z,10.57
2023-04-18T01:11:44.929Z,10.13
2023-04-18T01:14:12.271Z,10.32
2023-04-18T01:16:40.184Z,10.82
2023-04-18T01:19:07.383Z,10.35
2023-04-18T01:21:36.300Z,10.95
2023-04-18T01:24:16.847Z,10.90
2023-04-18T01:26:47.776Z,9.55
2023-04-18T01:29:15.443Z,11.20
2023-04-18T01:31:42.611Z,11.00
2023-04-18T01:34:09.897Z,10.48
2023-04-18T01:36:38.069Z,11.10
2023-04-18T01:39:05.524Z,10.65
2023-04-18T01:41:33.196Z,11.02
2023-04-18T01:44:00.597Z,10.50
2023-04-18T01:46:28.300Z,9.65
2023-04-18T01:48:56.093Z,10.50
2023-04-18T01:51:23.595Z,10.15
2023-04-18T01:53:50.733Z,10.40
2023-04-18T01:56:17.797Z,11.00
2023-04-18T01:58:45.096Z,10.32
2023-04-18T02:01:13.259Z,10.48
2023-04-18T02:03:40.633Z,10.27
2023-04-18T02:06:08.177Z,10.75
2023-04-18T02:08:36.165Z,10.70
2023-04-18T02:11:06.235Z,10.73
2023-04-18T02:13:33.386Z,10.95
2023-04-18T02:16:00.703Z,10.60
2023-04-18T02:18:47.788Z,10.48
2023-04-18T02:21:14.702Z,10.03
2023-04-18T02:23:41.719Z,10.20
2023-04-18T02:26:08.843Z,10.52
2023-04-18T02:28:39.248Z,10.77
2023-04-18T02:31:07.463Z,11.13
2023-04-18T02:33:35.212Z,10.93
2023-04-18T02:36:02.272Z,10.90
2023-04-18T02:38:29.326Z,11.05
2023-04-18T02:40:56.383Z,10.63
2023-04-18T02:43:23.414Z,10.45
2023-04-18T02:45:50.790Z,10.30
2023-04-18T02:48:17.967Z,10.93
2023-04-18T02:50:46.090Z,10.63
2023-04-18T02:53:13.611Z,11.15
2023-04-18T02:55:53.401Z,11.38
2023-04-18T02:58:24.131Z,10.83
2023-04-18T03:01:28.379Z,11.98
2023-04-18T03:04:06.903Z,10.90
2023-04-18T03:06:38.762Z,10.40
2023-04-18T03:09:07.264Z,11.55
2023-04-18T03:11:37.480Z,10.53
2023-04-18T03:14:05.988Z,11.38
2023-04-18T03:16:44.174Z,12.77
2023-04-18T03:19:14.944Z,23.52
2023-04-18T03:21:42.142Z,13.00
2023-04-18T03:24:12.215Z,12.67
2023-04-18T03:26:41.020Z,12.20
2023-04-18T03:29:08.639Z,12.88
2023-04-18T03:31:35.930Z,11.75
2023-04-18T03:34:03.007Z,10.98
2023-04-18T03:36:31.488Z,11.67
2023-04-18T03:38:59.343Z,11.45
2023-04-18T03:41:27.250Z,11.45
2023-04-18T03:43:56.824Z,10.93
2023-04-18T03:46:24.714Z,11.05
2023-04-18T03:48:54.384Z,11.47
2023-04-18T03:51:21.822Z,12.07
2023-04-18T03:53:48.894Z,11.25
2023-04-18T03:56:17.464Z,11.00
2023-04-18T03:58:55.736Z,11.45
2023-04-18T04:01:23.347Z,10.87
2023-04-18T04:03:52.412Z,11.90
2023-04-18T04:06:20.518Z,11.70
2023-04-18T04:08:47.629Z,11.68
2023-04-18T04:11:19.440Z,11.95
2023-04-18T04:13:46.949Z,11.77
2023-04-18T04:16:16.879Z,11.40
2023-04-18T04:18:45.233Z,12.18
2023-04-18T04:21:13.640Z,11.52
2023-04-18T04:23:46.473Z,12.25
2023-04-18T04:26:26.350Z,12.57
2023-04-18T04:29:03.608Z,13.95
2023-04-18T04:31:32.738Z,13.23
2023-04-18T04:33:59.832Z,12.43
2023-04-18T04:36:27.367Z,12.48
2023-04-18T04:38:59.320Z,14.33
2023-04-18T04:41:37.713Z,12.82
2023-04-18T04:44:07.083Z,14.23
2023-04-18T04:46:39.508Z,14.05
2023-04-18T04:49:12.731Z,13.00
2023-04-18T04:51:40.337Z,13.20
2023-04-18T04:54:07.420Z,14.07
2023-04-18T04:56:34.825Z,13.00
2023-04-18T04:59:02.265Z,14.55
2023-04-18T05:01:36.528Z,13.40
2023-04-18T05:04:04.113Z,13.02
2023-04-18T05:06:31.899Z,13.75
2023-04-18T05:09:01.084Z,13.48
2023-04-18T05:11:28.473Z,14.43
2023-04-18T05:13:55.546Z,14.52
2023-04-18T05:16:22.799Z,13.57
2023-04-18T05:18:49.969Z,14.50
2023-04-18T05:21:17.007Z,14.23
2023-04-18T05:23:44.246Z,14.20
2023-04-18T05:26:11.326Z,13.73
2023-04-18T05:28:38.523Z,14.30
2023-04-18T05:31:05.793Z,13.77
2023-04-18T05:33:32.930Z,13.90
2023-04-18T05:36:00.368Z,12.77
2023-04-18T05:38:27.463Z,14.25
2023-04-18T05:40:56.017Z,13.40
2023-04-18T05:43:23.554Z,13.60
2023-04-18T05:45:52.718Z,13.70
2023-04-18T05:48:20.178Z,13.93
2023-04-18T05:50:47.543Z,14.82
2023-04-18T05:53:14.803Z,15.10
2023-04-18T05:55:42.100Z,14.73
2023-04-18T05:58:11.324Z,14.25
2023-04-18T06:00:38.370Z,13.68
2023-04-18T06:03:06.287Z,14.95
2023-04-18T06:05:35.225Z,13.57
2023-04-18T06:08:02.379Z,12.70
2023-04-18T06:10:29.811Z,13.50
2023-04-18T06:12:56.946Z,13.90
2023-04-18T06:15:24.261Z,13.95
2023-04-18T06:17:51.501Z,14.05
2023-04-18T06:20:18.673Z,14.77
2023-04-18T06:22:45.879Z,14.57
2023-04-18T06:25:13.002Z,14.15
2023-04-18T06:27:40.183Z,14.25
2023-04-18T06:30:08.376Z,13.23
2023-04-18T06:32:35.791Z,14.25
2023-04-18T06:35:03.185Z,13.05
2023-04-18T06:37:32.120Z,13.70
2023-04-18T06:39:59.229Z,15.13
2023-04-18T06:42:26.381Z,17.73
2023-04-18T06:44:54.893Z,15.80
2023-04-18T06:47:22.871Z,15.40
2023-04-18T06:49:50.048Z,17.30
2023-04-18T06:52:17.195Z,16.38
2023-04-18T06:54:44.212Z,16.65
2023-04-18T06:57:11.408Z,16.27
2023-04-18T06:59:38.684Z,14.65
2023-04-18T07:02:05.755Z,13.05
2023-04-18T07:04:32.834Z,14.35
2023-04-18T07:07:01.704Z,15.63
2023-04-18T07:09:29.056Z,14.43
2023-04-18T07:11:56.431Z,15.48
2023-04-18T07:14:24.883Z,15.70
2023-04-18T07:16:52.441Z,14.52
2023-04-18T07:19:19.537Z,15.57
2023-04-18T07:21:46.694Z,14.30
2023-04-18T07:24:14.124Z,14.02
2023-04-18T07:26:41.819Z,13.02
2023-04-18T07:29:08.957Z,13.15
2023-04-18T07:31:36.332Z,13.73
2023-04-18T07:34:03.570Z,12.10
2023-04-18T07:36:31.552Z,13.10
2023-04-18T07:38:58.637Z,13.00
2023-04-18T07:41:25.704Z,12.85
2023-04-18T07:43:52.723Z,12.90
2023-04-18T07:46:19.904Z,13.23
2023-04-18T07:48:46.971Z,11.50
2023-04-18T07:51:13.989Z,11.50
2023-04-18T07:53:43.936Z,12.95
2023-04-18T07:56:12.775Z,13.35
2023-04-18T07:58:40.145Z,12.50
2023-04-18T08:01:07.908Z,11.88
2023-04-18T08:03:36.572Z,12.65
2023-04-18T08:06:03.987Z,13.20
2023-04-18T08:08:31.426Z,12.90
2023-04-18T08:10:58.588Z,12.30
2023-04-18T08:13:25.758Z,11.80
2023-04-18T08:15:52.840Z,12.27
2023-04-18T08:18:20.186Z,12.23
2023-04-18T08:20:47.345Z,12.32
2023-04-18T08:23:17.192Z,12.57
2023-04-18T08:25:44.538Z,12.68
2023-04-18T08:28:13.230Z,12.85
2023-04-18T08:30:40.347Z,12.55
2023-04-18T08:33:07.483Z,12.05
2023-04-18T08:35:35.493Z,13.17
2023-04-18T08:38:03.010Z,13.63
2023-04-18T08:40:30.509Z,12.82
2023-04-18T08:42:58.755Z,12.73
2023-04-18T08:45:26.514Z,12.45
2023-04-18T08:47:53.799Z,12.50
2023-04-18T08:50:21.533Z,13.30
2023-04-18T08:52:51.349Z,13.20
2023-04-18T08:55:19.220Z,13.07
2023-04-18T08:57:47.709Z,12.13
2023-04-18T09:00:17.762Z,12.35
2023-04-18T09:02:47.297Z,12.93
2023-04-18T09:05:16.262Z,13.13
2023-04-18T09:07:43.532Z,12.45
2023-04-18T09:10:12.665Z,13.02
2023-04-18T09:12:53.067Z,12.98
2023-04-18T09:15:23.809Z,12.95
2023-04-18T09:17:56.463Z,13.20
2023-04-18T09:20:35.164Z,13.50
2023-04-18T09:23:05.133Z,13.43
2023-04-18T09:25:45.115Z,13.57
2023-04-18T09:28:30.547Z,14.35
2023-04-18T09:30:58.505Z,14.23
2023-04-18T09:33:34.091Z,13.38
2023-04-18T09:36:17.669Z,13.73
2023-04-18T09:38:44.829Z,14.25
2023-04-18T09:41:15.845Z,14.07
2023-04-18T09:43:44.598Z,13.35
2023-04-18T09:46:12.735Z,13.75
2023-04-18T09:48:40.961Z,13.38
2023-04-18T09:51:10.900Z,14.13
2023-04-18T09:53:40.090Z,14.75
2023-04-18T09:56:12.887Z,14.20
2023-04-18T09:58:42.600Z,14.27
2023-04-18T10:01:09.776Z,15.43
2023-04-18T10:03:47.395Z,15.05
2023-04-18T10:06:17.681Z,14.23
2023-04-18T10:08:45.833Z,13.80
2023-04-18T10:11:13.006Z,13.85
2023-04-18T10:13:43.249Z,13.90
2023-04-18T10:16:11.756Z,14.00
2023-04-18T10:18:38.990Z,14.05
2023-04-18T10:21:06.310Z,13.95
2023-04-18T10:23:36.215Z,13.25
2023-04-18T10:26:08.049Z,12.98
2023-04-18T10:28:57.581Z,12.57
2023-04-18T10:31:27.236Z,12.00
2023-04-18T10:34:05.593Z,11.02
2023-04-18T10:36:34.009Z,12.27
2023-04-18T10:39:20.014Z,11.40
2023-04-18T10:41:51.670Z,12.55
2023-04-18T10:44:22.055Z,12.25
2023-04-18T10:46:52.377Z,11.75
2023-04-18T10:49:26.276Z,10.90
2023-04-18T10:51:58.578Z,10.50
2023-04-18T10:54:37.861Z,11.43
2023-04-18T10:57:08.821Z,10.77
2023-04-18T10:59:39.070Z,11.48
2023-04-18T11:02:25.960Z,11.52
2023-04-18T11:04:55.676Z,11.15
2023-04-18T11:07:42.174Z,10.93
2023-04-18T11:10:10.152Z,11.77
2023-04-18T11:12:40.317Z,11.63
2023-04-18T11:15:17.830Z,11.32
2023-04-18T11:17:45.200Z,12.40
2023-04-18T11:20:15.155Z,11.57
2023-04-18T11:22:48.189Z,10.27
2023-04-18T11:25:16.828Z,11.40
2023-04-18T11:27:45.202Z,11.18
2023-04-18T11:30:13.472Z,10.70
2023-04-18T11:32:41.447Z,10.77
2023-04-18T11:35:10.234Z,10.73
2023-04-18T11:37:39.109Z,10.68
2023-04-18T11:40:09.514Z,10.93
2023-04-18T11:42:38.947Z,10.90
2023-04-18T11:45:24.224Z,11.05
2023-04-18T11:47:57.296Z,11.35
2023-04-18T11:50:25.420Z,16.45
2023-04-18T11:52:54.802Z,12.95
2023-04-18T11:55:24.943Z,12.07
2023-04-18T11:57:54.168Z,12.60
2023-04-18T12:00:38.644Z,12.05
2023-04-18T12:03:13.354Z,11.00
2023-04-18T12:05:42.752Z,16.17
2023-04-18T12:08:12.003Z,12.23
2023-04-18T12:10:53.549Z,11.10
2023-04-18T12:13:32.637Z,12.07
2023-04-18T12:16:02.512Z,11.55
2023-04-18T12:18:30.050Z,12.07
2023-04-18T12:20:58.734Z,12.05
2023-04-18T12:23:34.016Z,12.40
2023-04-18T12:26:15.274Z,11.65
2023-04-18T12:28:46.039Z,11.98
2023-04-18T12:31:13.157Z,11.80
2023-04-18T12:33:40.511Z,11.50
2023-04-18T12:36:11.385Z,12.63
2023-04-18T12:38:38.642Z,11.55
2023-04-18T12:41:05.878Z,12.02
2023-04-18T12:43:33.207Z,11.95
2023-04-18T12:46:00.425Z,11.82
2023-04-18T12:48:27.574Z,11.05
2023-04-18T12:50:54.534Z,12.05
2023-04-18T12:53:21.757Z,11.35
2023-04-18T12:55:48.955Z,11.55
2023-04-18T12:58:18.813Z,11.88
2023-04-18T13:00:46.339Z,11.57
2023-04-18T13:03:13.768Z,11.50
2023-04-18T13:05:41.333Z,11.80
2023-04-18T13:08:17.183Z,10.63
2023-04-18T13:10:48.706Z,10.00
2023-04-18T13:13:16.195Z,11.48
2023-04-18T13:15:43.458Z,11.52
2023-04-18T13:18:10.487Z,11.45
2023-04-18T13:20:37.674Z,11.07
2023-04-18T13:23:05.328Z,10.23
2023-04-18T13:25:32.592Z,10.80
2023-04-18T13:28:01.042Z,11.07
2023-04-18T13:30:29.265Z,11.18
2023-04-18T13:32:56.901Z,11.68
2023-04-18T13:35:24.470Z,11.43
2023-04-18T13:37:51.666Z,12.32
2023-04-18T13:40:18.743Z,12.23
2023-04-18T13:42:45.831Z,12.98
2023-04-18T13:45:12.882Z,11.73
2023-04-18T13:47:40.055Z,11.98
2023-04-18T13:50:08.193Z,11.15
2023-04-18T13:52:35.442Z,12.93
2023-04-18T13:55:02.412Z,13.43
2023-04-18T13:57:32.396Z,13.20
2023-04-18T13:59:59.548Z,12.18
2023-04-18T14:02:26.905Z,11.52
2023-04-18T14:04:55.015Z,12.75
2023-04-18T14:07:22.169Z,11.48
2023-04-18T14:09:49.331Z,11.25
2023-04-18T14:12:16.410Z,11.10
2023-04-18T14:14:43.384Z,11.50
2023-04-18T14:17:10.450Z,11.75
2023-04-18T14:19:37.545Z,12.48
2023-04-18T14:22:04.552Z,11.32
2023-04-18T14:24:31.626Z,11.85
2023-04-18T14:26:58.714Z,11.75
2023-04-18T14:29:25.834Z,11.20
2023-04-18T14:31:52.880Z,11.40
2023-04-18T14:34:19.930Z,11.75
2023-04-18T14:36:47.023Z,11.32
2023-04-18T14:39:14.442Z,11.02
2023-04-18T14:56:43.780Z,9.57
2023-04-18T14:59:15.559Z,9.32
2023-04-18T15:01:43.853Z,9.85
2023-04-18T15:04:11.080Z,9.48
2023-04-18T15:06:38.702Z,10.70
2023-04-18T15:09:06.753Z,11.00
2023-04-18T15:11:34.053Z,10.18
2023-04-18T15:14:01.376Z,9.40
2023-04-18T15:16:28.930Z,10.35
2023-04-18T15:18:56.044Z,10.48
2023-04-18T15:21:23.171Z,9.27
2023-04-18T15:23:50.616Z,8.93
2023-04-18T15:26:17.839Z,10.00
2023-04-18T15:28:45.506Z,8.98
2023-04-18T15:31:12.933Z,9.45
2023-04-18T15:33:40.279Z,9.02
2023-04-18T15:36:07.557Z,8.63
2023-04-18T15:38:34.964Z,9.52
2023-04-18T15:41:02.234Z,8.93
2023-04-18T15:43:29.341Z,8.38
2023-04-18T15:45:56.457Z,9.10
2023-04-18T15:48:23.706Z,8.60
2023-04-18T15:50:52.199Z,9.10
2023-04-18T15:53:19.475Z,8.95
2023-04-18T15:55:49.392Z,9.50
2023-04-18T15:58:16.578Z,8.73
2023-04-18T16:00:44.427Z,9.15
2023-04-18T16:03:12.347Z,9.38
2023-04-18T16:05:39.695Z,10.32
2023-04-18T16:08:08.943Z,9.00
2023-04-18T16:10:37.035Z,8.98
2023-04-18T16:13:04.552Z,9.10
2023-04-18T16:15:32.048Z,9.63
2023-04-18T16:17:59.135Z,8.88
2023-04-18T16:20:27.483Z,9.52
2023-04-18T16:22:54.670Z,8.45
2023-04-18T16:25:21.825Z,8.80
2023-04-18T16:27:48.859Z,9.32
2023-04-18T16:30:16.241Z,9.25
2023-04-18T16:32:43.941Z,9.13
2023-04-18T16:35:11.253Z,8.27
2023-04-18T16:37:39.961Z,9.13
2023-04-18T16:40:10.248Z,8.57
2023-04-18T16:42:37.539Z,8.27
2023-04-18T16:45:04.922Z,8.80
2023-04-18T16:47:35.036Z,8.00
2023-04-18T16:50:02.271Z,8.50
2023-04-18T16:52:31.455Z,8.80
2023-04-18T16:54:58.515Z,9.20
2023-04-18T16:57:25.783Z,7.90
2023-04-18T16:59:52.913Z,7.95
2023-04-18T17:02:20.176Z,8.48
2023-04-18T17:04:47.693Z,8.60
2023-04-18T17:07:14.947Z,8.30
2023-04-18T17:09:42.161Z,8.43
2023-04-18T17:12:09.223Z,8.25
2023-04-18T17:14:37.287Z,7.82
2023-04-18T17:17:04.535Z,9.18
2023-04-18T17:19:31.948Z,8.48
2023-04-18T17:21:59.028Z,8.57
2023-04-18T17:24:26.428Z,9.05
2023-04-18T17:26:53.481Z,8.75
2023-04-18T17:29:23.069Z,9.35
2023-04-18T17:31:51.380Z,9.43
2023-04-18T17:34:18.582Z,8.13
2023-04-18T17:36:45.807Z,9.77
2023-04-18T17:39:13.506Z,8.60
2023-04-18T17:41:40.804Z,9.43
2023-04-18T17:44:08.612Z,9.40
2023-04-18T17:46:36.212Z,9.55
2023-04-18T17:49:04.478Z,9.57
2023-04-18T17:51:31.710Z,9.40
2023-04-18T17:53:58.841Z,9.27
2023-04-18T17:56:27.059Z,9.70
2023-04-18T17:58:56.567Z,9.50
2023-04-18T18:01:24.966Z,9.90
2023-04-18T18:03:54.065Z,9.60
2023-04-18T18:06:21.799Z,8.27
2023-04-18T18:08:48.954Z,9.50
2023-04-18T18:11:16.421Z,8.88
2023-04-18T18:13:43.852Z,9.73
2023-04-18T18:16:11.168Z,9.38
2023-04-18T18:18:39.042Z,9.60
2023-04-18T18:21:06.146Z,9.27
2023-04-18T18:23:33.402Z,9.88
2023-04-18T18:26:01.868Z,9.00
2023-04-18T18:28:29.075Z,9.30
2023-04-18T18:30:56.229Z,9.75
2023-04-18T18:33:24.178Z,9.27
2023-04-18T18:35:51.414Z,9.98
2023-04-18T18:38:18.679Z,9.13
2023-04-18T18:40:46.264Z,9.88
2023-04-18T18:43:13.529Z,8.63
2023-04-18T18:45:40.943Z,8.50
2023-04-18T18:48:08.876Z,8.82
2023-04-18T18:50:36.183Z,8.37
2023-04-18T18:53:03.268Z,8.63
2023-04-18T18:55:30.423Z,8.57
2023-04-18T18:57:57.624Z,9.05
2023-04-18T19:00:25.013Z,9.30
2023-04-18T19:02:52.291Z,8.25
2023-04-18T19:05:19.702Z,8.30
2023-04-18T19:07:46.798Z,8.68
2023-04-18T19:10:13.848Z,9.40
2023-04-18T19:12:40.891Z,8.07
2023-04-18T19:15:08.722Z,8.80
2023-04-18T19:17:35.985Z,8.30
2023-04-18T19:20:03.665Z,8.23
2023-04-18T19:22:32.409Z,8.75
2023-04-18T19:25:00.837Z,8.35
2023-04-18T19:27:28.077Z,8.95
2023-04-18T19:29:55.316Z,9.52
2023-04-18T19:32:22.519Z,8.63
2023-04-18T19:34:51.213Z,7.38
2023-04-18T19:37:18.378Z,8.23
2023-04-18T19:39:45.493Z,8.20
2023-04-18T19:42:12.564Z,8.90
2023-04-18T19:44:39.662Z,8.43
2023-04-18T19:47:06.813Z,8.95
2023-04-18T19:49:33.956Z,8.85
2023-04-18T19:52:01.187Z,8.68
2023-04-18T19:54:28.344Z,7.90
2023-04-18T19:56:55.474Z,8.32
2023-04-18T19:59:22.541Z,8.55
2023-04-18T20:01:49.872Z,8.25
2023-04-18T20:04:17.144Z,9.03
2023-04-18T20:06:44.692Z,8.32
2023-04-18T20:09:16.842Z,8.38
2023-04-18T20:11:44.231Z,7.93
2023-04-18T20:14:11.225Z,7.57
2023-04-18T20:16:39.197Z,7.03
2023-04-18T20:19:06.347Z,8.02
2023-04-18T20:21:33.427Z,7.97
2023-04-18T20:24:00.700Z,7.65
2023-04-18T20:26:27.871Z,7.53
2023-04-18T20:28:54.987Z,7.30
2023-04-18T20:31:22.094Z,7.57
2023-04-18T20:33:49.303Z,7.55
2023-04-18T20:36:17.856Z,7.18
2023-04-18T20:38:45.056Z,8.07
2023-04-18T20:41:15.121Z,7.93
2023-04-18T20:43:43.294Z,7.68
2023-04-18T20:46:13.248Z,7.18
2023-04-18T20:48:40.659Z,7.10
2023-04-18T20:51:07.656Z,7.28
2023-04-18T20:53:34.685Z,7.07
2023-04-18T20:56:03.132Z,7.28
2023-04-18T20:58:30.476Z,7.97
2023-04-18T21:00:57.537Z,7.93
2023-04-18T21:03:25.068Z,9.10
2023-04-18T21:05:52.793Z,7.90
2023-04-18T21:08:19.940Z,8.57
2023-04-18T21:10:47.026Z,8.50
2023-04-18T21:13:14.165Z,7.45
2023-04-18T21:15:42.346Z,7.70
2023-04-18T21:18:09.884Z,7.27
2023-04-18T21:20:37.324Z,7.60
2023-04-18T21:23:04.443Z,8.15
2023-04-18T21:25:31.467Z,7.88
2023-04-18T21:27:58.620Z,8.10
2023-04-18T21:30:25.897Z,8.43
2023-04-18T21:32:53.206Z,9.73
2023-04-18T21:35:22.638Z,9.07
2023-04-18T21:37:51.375Z,8.93
2023-04-18T21:40:18.582Z,10.45
2023-04-18T21:42:46.194Z,8.90
2023-04-18T21:45:13.866Z,9.88
2023-04-18T21:47:41.175Z,9.27
2023-04-18T21:50:09.213Z,9.88
2023-04-18T21:52:37.129Z,10.88
2023-04-18T21:55:05.132Z,9.67
2023-04-18T21:57:33.266Z,10.13
2023-04-18T22:00:00.345Z,10.30
2023-04-18T22:02:27.876Z,11.23
2023-04-18T22:04:55.695Z,11.70
2023-04-18T22:07:24.741Z,10.33
2023-04-18T22:09:52.023Z,10.68
2023-04-18T22:12:19.367Z,11.30
2023-04-18T22:14:48.581Z,9.80
2023-04-18T22:17:16.008Z,9.27
2023-04-18T22:19:44.674Z,9.20
2023-04-18T22:22:12.249Z,9.85
2023-04-18T22:24:39.698Z,9.85
2023-04-18T22:27:07.252Z,9.23
2023-04-18T22:29:34.464Z,7.88
2023-04-18T22:32:01.703Z,8.53
2023-04-18T22:34:28.889Z,9.85
2023-04-18T22:36:55.978Z,10.95
2023-04-18T22:39:23.047Z,9.82
2023-04-18T22:41:50.327Z,9.30
2023-04-18T22:44:17.550Z,9.07
2023-04-18T22:46:45.702Z,8.70
2023-04-18T22:49:12.884Z,9.02
2023-04-18T22:51:40.163Z,8.15
2023-04-18T22:54:07.516Z,8.55
2023-04-18T22:56:34.770Z,8.40
2023-04-18T22:59:01.819Z,9.35
2023-04-18T23:01:28.924Z,8.77
2023-04-18T23:03:56.308Z,8.18
2023-04-18T23:06:23.880Z,10.90
2023-04-18T23:08:51.081Z,9.60
2023-04-18T23:11:18.275Z,8.68
2023-04-18T23:13:45.479Z,9.55
2023-04-18T23:16:12.629Z,8.75
2023-04-18T23:18:39.818Z,8.50
2023-04-18T23:21:17.506Z,8.90
2023-04-18T23:23:44.951Z,9.63
2023-04-18T23:26:16.394Z,9.30
2023-04-18T23:28:43.775Z,8.93
2023-04-18T23:31:11.339Z,8.23
2023-04-18T23:33:38.585Z,8.73
2023-04-18T23:36:06.690Z,8.43
2023-04-18T23:38:34.135Z,9.68
2023-04-18T23:41:01.560Z,8.18
2023-04-18T23:43:29.244Z,8.35
2023-04-18T23:45:56.849Z,8.00
2023-04-18T23:52:51.775Z,8.13
2023-04-18T23:55:19.351Z,8.25
2023-04-18T23:57:46.449Z,8.52
